Time;durP1;ratioP1;P1;durP2;ratioP2;P2;SDS_P1;SDS_P2;PMS_P1;PMS_P2;Temp;Humidity;BMP_temperature;BMP_pressure;BME280_temperature;BME280_humidity;BME280_pressure;Samples;Min_cycle;Max_cycle;Signal;HPM_P1;HPM_P2
2022/01/01 00:01:29;;;;;;;42.55;18.20;;;;;;;;;;5031612;28;20025;-66
2022/01/01 00:03:55;;;;;;;18.05;7.22;;;;;;;;;;5031908;28;20018;-66
2022/01/01 00:06:20;;;;;;;42.58;19.40;;;;;;;;;;5031863;28;20024;-65
2022/01/01 00:08:45;;;;;;;37.97;16.40;;;;;;;;;;5031876;28;20020;-66
2022/01/01 00:11:12;;;;;;;46.50;18.23;;;;;;;;;;5031373;28;20032;-66
2022/01/01 00:13:37;;;;;;;37.58;13.57;;;;;;;;;;5031392;28;20025;-66
2022/01/01 00:16:03;;;;;;;23.50;11.88;;;;;;;;;;5031771;28;20029;-65
2022/01/01 00:18:28;;;;;;;36.70;13.57;;;;;;;;;;5031421;28;20466;-66
2022/01/01 00:20:53;;;;;;;34.33;12.32;;;;;;;;;;5031122;28;20021;-65
2022/01/01 00:23:18;;;;;;;31.20;9.65;;;;;;;;;;5031479;28;20482;-65
2022/01/01 00:25:43;;;;;;;41.50;15.43;;;;;;;;;;5030606;28;20245;-66
2022/01/01 00:28:10;;;;;;;33.47;12.17;;;;;;;;;;5030644;28;20458;-66
2022/01/01 00:30:35;;;;;;;46.13;13.02;;;;;;;;;;5030780;28;20260;-66
2022/01/01 00:33:00;;;;;;;36.75;12.20;;;;;;;;;;5030978;28;20365;-66
2022/01/01 00:35:25;;;;;;;33.05;12.48;;;;;;;;;;5031213;28;20017;-67
2022/01/01 00:37:50;;;;;;;24.27;10.43;;;;;;;;;;5031972;28;20018;-67
2022/01/01 00:40:16;;;;;;;30.63;12.60;;;;;;;;;;5030763;28;20026;-66
2022/01/01 00:42:41;;;;;;;29.73;12.48;;;;;;;;;;5031040;28;20323;-67
2022/01/01 00:45:06;;;;;;;24.77;9.82;;;;;;;;;;5029230;28;20029;-66
2022/01/01 00:47:31;;;;;;;22.98;11.07;;;;;;;;;;5028786;28;20101;-66
2022/01/01 00:49:57;;;;;;;26.10;11.23;;;;;;;;;;5029055;28;20025;-66
2022/01/01 00:52:22;;;;;;;38.57;12.17;;;;;;;;;;5030268;28;20269;-66
2022/01/01 00:54:47;;;;;;;30.33;11.50;;;;;;;;;;5030530;28;20275;-66
2022/01/01 00:57:12;;;;;;;39.50;15.77;;;;;;;;;;5030296;28;20280;-66
2022/01/01 00:59:37;;;;;;;37.20;12.38;;;;;;;;;;5028320;28;20036;-66
2022/01/01 01:02:03;;;;;;;32.27;12.67;;;;;;;;;;5030686;28;20044;-66
2022/01/01 01:04:28;;;;;;;33.33;12.18;;;;;;;;;;5030557;28;20682;-67
2022/01/01 01:06:53;;;;;;;32.03;13.45;;;;;;;;;;5029932;28;20477;-67
2022/01/01 01:09:18;;;;;;;29.42;13.02;;;;;;;;;;5029188;28;20026;-66
2022/01/01 01:11:47;;;;;;;26.40;13.02;;;;;;;;;;5030591;28;20020;-67
2022/01/01 01:14:20;;;;;;;32.20;10.77;;;;;;;;;;5030112;28;20021;-67
2022/01/01 01:16:45;;;;;;;28.83;10.85;;;;;;;;;;5029846;28;20025;-67
2022/01/01 01:19:10;;;;;;;34.10;11.15;;;;;;;;;;5029621;28;20030;-68
2022/01/01 01:21:35;;;;;;;31.67;12.13;;;;;;;;;;5030268;28;20022;-66
2022/01/01 01:24:01;;;;;;;23.20;8.37;;;;;;;;;;5030209;28;20433;-66
2022/01/01 01:26:28;;;;;;;32.85;10.45;;;;;;;;;;5030638;28;20593;-67
2022/01/01 01:28:54;;;;;;;25.58;9.27;;;;;;;;;;5029786;28;20053;-66
2022/01/01 01:31:19;;;;;;;26.42;10.57;;;;;;;;;;5030146;28;20068;-66
2022/01/01 01:33:44;;;;;;;21.77;7.65;;;;;;;;;;5030075;28;20034;-67
2022/01/01 01:36:10;;;;;;;29.60;8.73;;;;;;;;;;5028844;28;20406;-66
2022/01/01 01:38:36;;;;;;;24.00;6.43;;;;;;;;;;5029728;28;20306;-67
2022/01/01 01:41:05;;;;;;;29.27;8.70;;;;;;;;;;5030001;28;20493;-66
2022/01/01 01:43:31;;;;;;;19.85;8.63;;;;;;;;;;5029880;28;20363;-67
2022/01/01 01:45:57;;;;;;;30.52;9.48;;;;;;;;;;5029047;28;20022;-67
2022/01/01 01:48:23;;;;;;;19.95;7.90;;;;;;;;;;5029656;28;20021;-65
2022/01/01 01:50:48;;;;;;;20.33;9.18;;;;;;;;;;5031287;28;20029;-66
2022/01/01 01:53:13;;;;;;;30.77;8.57;;;;;;;;;;5033927;28;20049;-66
2022/01/01 01:55:39;;;;;;;26.88;8.50;;;;;;;;;;5034266;28;20310;-67
2022/01/01 01:58:04;;;;;;;30.23;9.77;;;;;;;;;;5033633;28;20387;-66
2022/01/01 02:03:13;;;;;;;27.75;9.35;;;;;;;;;;5033810;28;20064;-66
2022/01/01 02:05:38;;;;;;;24.65;9.60;;;;;;;;;;5034053;28;20041;-66
2022/01/01 02:08:07;;;;;;;30.17;10.10;;;;;;;;;;5033733;28;20527;-66
2022/01/01 02:10:32;;;;;;;36.17;9.13;;;;;;;;;;5033712;28;20026;-67
2022/01/01 02:12:57;;;;;;;29.85;11.10;;;;;;;;;;5033573;28;20032;-65
2022/01/01 02:15:38;;;;;;;24.55;9.35;;;;;;;;;;5033851;28;20033;-66
2022/01/01 02:18:04;;;;;;;32.47;9.20;;;;;;;;;;5033709;28;20374;-65
2022/01/01 02:20:29;;;;;;;39.38;9.55;;;;;;;;;;5033724;28;20018;-66
2022/01/01 02:22:59;;;;;;;24.15;8.88;;;;;;;;;;5033343;28;20466;-67
2022/01/01 02:25:24;;;;;;;26.13;10.37;;;;;;;;;;5032121;28;20030;-66
2022/01/01 02:27:49;;;;;;;29.00;9.00;;;;;;;;;;5032777;28;20017;-66
2022/01/01 02:30:15;;;;;;;30.55;9.93;;;;;;;;;;5033092;28;20025;-66
2022/01/01 02:32:40;;;;;;;34.30;9.13;;;;;;;;;;5033588;28;20018;-66
2022/01/01 02:35:07;;;;;;;26.55;9.20;;;;;;;;;;5033207;28;20520;-66
2022/01/01 02:37:34;;;;;;;22.13;7.90;;;;;;;;;;5032769;28;20017;-66
2022/01/01 02:39:59;;;;;;;28.35;9.23;;;;;;;;;;5032927;28;20020;-66
2022/01/01 02:42:25;;;;;;;20.95;8.15;;;;;;;;;;5033178;28;20021;-66
2022/01/01 02:44:51;;;;;;;23.35;7.80;;;;;;;;;;5032964;28;20040;-65
2022/01/01 02:47:17;;;;;;;32.00;9.43;;;;;;;;;;5032804;28;20473;-67
2022/01/01 02:49:42;;;;;;;22.85;8.43;;;;;;;;;;5032599;28;20079;-67
2022/01/01 02:52:07;;;;;;;25.33;7.97;;;;;;;;;;5033133;28;20028;-67
2022/01/01 02:54:32;;;;;;;21.17;8.75;;;;;;;;;;5033139;28;20524;-66
2022/01/01 02:56:57;;;;;;;23.27;8.57;;;;;;;;;;5031564;28;20470;-67
2022/01/01 02:59:23;;;;;;;20.37;8.23;;;;;;;;;;5032356;28;20116;-66
2022/01/01 03:01:48;;;;;;;23.30;9.10;;;;;;;;;;5023376;23;20313;-67
2022/01/01 03:04:13;;;;;;;24.45;8.20;;;;;;;;;;5013021;28;20288;-66
2022/01/01 03:06:38;;;;;;;21.43;8.53;;;;;;;;;;5028153;28;20025;-66
2022/01/01 03:09:04;;;;;;;28.90;9.10;;;;;;;;;;5012447;28;20319;-66
2022/01/01 03:11:29;;;;;;;24.70;8.65;;;;;;;;;;5002251;28;20030;-66
2022/01/01 03:13:54;;;;;;;22.10;8.57;;;;;;;;;;4993420;28;20440;-67
2022/01/01 03:16:19;;;;;;;28.30;9.63;;;;;;;;;;4992905;28;20367;-66
2022/01/01 03:18:44;;;;;;;21.52;7.38;;;;;;;;;;4992720;28;20036;-66
2022/01/01 03:21:10;;;;;;;24.57;8.57;;;;;;;;;;4992664;28;20058;-66
2022/01/01 03:23:35;;;;;;;21.23;7.80;;;;;;;;;;4992772;28;20380;-66
2022/01/01 03:26:00;;;;;;;27.75;9.70;;;;;;;;;;4992663;28;20053;-66
2022/01/01 03:28:26;;;;;;;26.75;9.63;;;;;;;;;;4993087;28;20061;-66
2022/01/01 03:30:51;;;;;;;29.05;9.30;;;;;;;;;;4991404;28;20026;-66
2022/01/01 03:33:17;;;;;;;26.38;9.88;;;;;;;;;;4992903;28;20100;-67
2022/01/01 03:35:42;;;;;;;23.55;9.52;;;;;;;;;;4991433;28;20149;-66
2022/01/01 03:38:07;;;;;;;19.43;9.03;;;;;;;;;;4996193;28;20463;-66
2022/01/01 03:40:32;;;;;;;28.80;9.93;;;;;;;;;;4992252;28;20269;-66
2022/01/01 03:42:57;;;;;;;29.53;10.23;;;;;;;;;;4992487;28;20069;-66
2022/01/01 03:45:23;;;;;;;24.70;9.20;;;;;;;;;;4992289;28;20269;-66
2022/01/01 03:47:48;;;;;;;24.90;10.27;;;;;;;;;;4992464;28;20254;-66
2022/01/01 03:50:13;;;;;;;23.50;8.90;;;;;;;;;;4991713;28;20026;-66
2022/01/01 03:52:42;;;;;;;23.60;9.40;;;;;;;;;;4992135;28;20041;-66
2022/01/01 03:55:08;;;;;;;26.60;8.95;;;;;;;;;;4991604;28;20085;-66
2022/01/01 03:57:33;;;;;;;25.67;10.45;;;;;;;;;;4992143;28;20022;-66
2022/01/01 04:00:00;;;;;;;27.90;8.77;;;;;;;;;;4991461;28;20032;-67
2022/01/01 04:02:25;;;;;;;30.65;8.68;;;;;;;;;;4992790;28;20026;-67
2022/01/01 04:04:50;;;;;;;25.60;8.13;;;;;;;;;;4991986;28;20028;-66
2022/01/01 04:07:15;;;;;;;30.23;8.57;;;;;;;;;;4992363;28;20312;-67
2022/01/01 04:09:40;;;;;;;23.13;8.02;;;;;;;;;;4991429;28;20269;-66
2022/01/01 04:12:06;;;;;;;22.50;7.93;;;;;;;;;;4992511;28;20034;-67
2022/01/01 04:14:31;;;;;;;23.33;7.80;;;;;;;;;;4991433;28;20258;-66
2022/01/01 04:16:57;;;;;;;19.70;6.33;;;;;;;;;;4992077;28;20028;-66
2022/01/01 04:19:30;;;;;;;29.02;8.57;;;;;;;;;;4990822;28;20285;-66
2022/01/01 04:21:55;;;;;;;23.85;6.95;;;;;;;;;;4991570;28;20022;-66
2022/01/01 04:24:21;;;;;;;17.90;6.87;;;;;;;;;;4991912;28;20019;-67
2022/01/01 04:26:46;;;;;;;18.80;5.93;;;;;;;;;;4992337;28;20662;-66
2022/01/01 04:29:11;;;;;;;17.13;6.73;;;;;;;;;;4991377;28;20365;-67
2022/01/01 04:31:36;;;;;;;19.67;6.67;;;;;;;;;;4991950;28;20269;-65
2022/01/01 04:34:01;;;;;;;34.45;7.38;;;;;;;;;;4991924;28;20277;-67
2022/01/01 04:36:26;;;;;;;20.02;7.95;;;;;;;;;;4991761;28;20061;-66
2022/01/01 04:38:52;;;;;;;16.30;5.82;;;;;;;;;;4991170;28;20084;-67
2022/01/01 04:41:17;;;;;;;17.80;6.88;;;;;;;;;;4990643;28;20019;-66
2022/01/01 04:43:43;;;;;;;16.25;6.30;;;;;;;;;;4991325;28;20025;-66
2022/01/01 04:46:10;;;;;;;18.02;6.22;;;;;;;;;;4991704;28;20015;-67
2022/01/01 04:48:37;;;;;;;25.98;6.18;;;;;;;;;;4991034;28;20026;-66
2022/01/01 04:51:07;;;;;;;15.15;5.07;;;;;;;;;;4991499;28;20032;-66
2022/01/01 04:53:33;;;;;;;;;;;;;;;;;;4995967;28;20765;-66
2022/01/01 04:56:02;;;;;;;21.70;5.10;;;;;;;;;;4990486;28;20004;-66
2022/01/01 04:58:27;;;;;;;13.35;5.72;;;;;;;;;;4990874;28;20518;-66
2022/01/01 05:00:52;;;;;;;13.23;4.77;;;;;;;;;;4990242;28;20109;-67
2022/01/01 05:03:17;;;;;;;20.67;5.87;;;;;;;;;;4990986;28;20257;-66
2022/01/01 05:05:43;;;;;;;15.37;6.00;;;;;;;;;;4991090;28;20293;-66
2022/01/01 05:08:08;;;;;;;20.07;5.97;;;;;;;;;;4990069;28;20273;-66
2022/01/01 05:10:33;;;;;;;15.43;5.23;;;;;;;;;;5005551;28;20318;-66
2022/01/01 05:12:58;;;;;;;22.85;5.72;;;;;;;;;;4999361;28;20288;-66
2022/01/01 05:15:23;;;;;;;32.40;6.65;;;;;;;;;;4997467;28;20061;-66
2022/01/01 05:17:49;;;;;;;22.05;5.72;;;;;;;;;;5001758;28;20073;-67
2022/01/01 05:20:14;;;;;;;15.17;5.60;;;;;;;;;;4991047;28;20030;-66
2022/01/01 05:22:39;;;;;;;27.23;7.00;;;;;;;;;;5001440;28;20312;-66
2022/01/01 05:25:05;;;;;;;14.37;4.43;;;;;;;;;;4998497;28;20021;-66
2022/01/01 05:27:34;;;;;;;16.10;5.03;;;;;;;;;;4997800;28;20590;-66
2022/01/01 05:29:59;;;;;;;14.00;4.90;;;;;;;;;;5007523;28;20105;-66
2022/01/01 05:32:25;;;;;;;12.38;4.47;;;;;;;;;;4985184;28;20105;-66
2022/01/01 05:34:50;;;;;;;14.65;4.55;;;;;;;;;;4991318;28;20036;-66
2022/01/01 05:37:15;;;;;;;18.60;5.13;;;;;;;;;;4991058;28;20023;-66
2022/01/01 05:39:40;;;;;;;22.90;5.00;;;;;;;;;;4991128;28;20982;-66
2022/01/01 05:42:05;;;;;;;15.27;4.53;;;;;;;;;;4990719;28;20262;-67
2022/01/01 05:44:31;;;;;;;20.15;5.60;;;;;;;;;;4990908;28;20249;-66
2022/01/01 05:46:56;;;;;;;11.73;3.87;;;;;;;;;;4991237;28;20073;-67
2022/01/01 05:49:22;;;;;;;14.13;4.82;;;;;;;;;;5009098;28;20257;-66
2022/01/01 05:51:47;;;;;;;15.43;4.55;;;;;;;;;;5001710;28;20029;-66
2022/01/01 05:54:12;;;;;;;14.98;4.78;;;;;;;;;;4991160;28;20507;-68
2022/01/01 05:56:37;;;;;;;13.55;4.47;;;;;;;;;;4991931;28;20018;-65
2022/01/01 05:59:03;;;;;;;18.70;4.90;;;;;;;;;;5010491;28;20034;-66
2022/01/01 06:01:28;;;;;;;19.10;5.43;;;;;;;;;;4995313;28;20281;-67
2022/01/01 06:03:53;;;;;;;13.55;4.45;;;;;;;;;;4990984;28;20085;-66
2022/01/01 06:06:19;;;;;;;14.85;5.70;;;;;;;;;;4992331;28;20122;-66
2022/01/01 06:08:44;;;;;;;16.55;5.03;;;;;;;;;;5010348;28;20501;-65
2022/01/01 06:11:09;;;;;;;14.63;4.83;;;;;;;;;;4998744;28;20034;-67
2022/01/01 06:13:34;;;;;;;15.73;4.47;;;;;;;;;;4989991;28;20265;-67
2022/01/01 06:16:00;;;;;;;20.63;6.63;;;;;;;;;;4997547;28;20304;-67
2022/01/01 06:18:25;;;;;;;15.20;5.23;;;;;;;;;;4990375;28;20057;-66
2022/01/01 06:20:50;;;;;;;15.02;4.05;;;;;;;;;;4990554;28;20348;-66
2022/01/01 06:23:15;;;;;;;17.77;4.90;;;;;;;;;;4990178;28;20026;-66
2022/01/01 06:25:40;;;;;;;15.80;5.07;;;;;;;;;;4993026;28;20076;-66
2022/01/01 06:28:06;;;;;;;14.50;4.07;;;;;;;;;;4989695;28;20261;-66
2022/01/01 06:30:35;;;;;;;16.38;4.45;;;;;;;;;;4996755;28;20019;-66
2022/01/01 06:33:01;;;;;;;13.98;4.63;;;;;;;;;;4989287;28;20178;-66
2022/01/01 06:35:26;;;;;;;13.38;4.80;;;;;;;;;;4990554;28;20026;-66
2022/01/01 06:37:52;;;;;;;17.05;4.75;;;;;;;;;;4998355;28;20058;-66
2022/01/01 06:40:17;;;;;;;14.02;4.45;;;;;;;;;;5013611;28;20467;-66
2022/01/01 06:42:42;;;;;;;17.53;4.70;;;;;;;;;;4998568;28;20027;-67
2022/01/01 06:45:07;;;;;;;19.30;4.63;;;;;;;;;;4993839;28;20262;-66
2022/01/01 06:47:33;;;;;;;13.70;4.43;;;;;;;;;;4993098;28;20308;-66
2022/01/01 06:49:58;;;;;;;15.67;3.57;;;;;;;;;;4993528;28;20493;-66
2022/01/01 06:52:23;;;;;;;18.58;4.25;;;;;;;;;;4993653;28;20265;-66
2022/01/01 06:54:48;;;;;;;16.93;3.93;;;;;;;;;;4992904;28;20433;-66
2022/01/01 06:57:14;;;;;;;15.05;3.78;;;;;;;;;;4993752;28;20320;-66
2022/01/01 06:59:39;;;;;;;14.70;3.63;;;;;;;;;;4993378;28;20042;-67
2022/01/01 07:02:04;;;;;;;9.93;3.67;;;;;;;;;;4993282;28;20046;-66
2022/01/01 07:04:29;;;;;;;15.07;3.13;;;;;;;;;;4993196;28;20272;-65
2022/01/01 07:06:54;;;;;;;17.77;3.97;;;;;;;;;;4992782;28;20357;-65
2022/01/01 07:09:19;;;;;;;9.73;2.60;;;;;;;;;;4993127;28;20087;-65
2022/01/01 07:11:45;;;;;;;13.38;3.88;;;;;;;;;;4993097;28;20284;-67
2022/01/01 07:14:11;;;;;;;13.15;2.45;;;;;;;;;;4993763;28;20037;-66
2022/01/01 07:16:36;;;;;;;10.80;2.45;;;;;;;;;;4993297;28;20022;-66
2022/01/01 07:19:01;;;;;;;17.77;4.45;;;;;;;;;;4992829;28;20493;-66
2022/01/01 07:21:27;;;;;;;13.23;3.30;;;;;;;;;;4993413;28;20018;-66
2022/01/01 07:23:52;;;;;;;16.52;3.30;;;;;;;;;;4992861;28;20828;-66
2022/01/01 07:26:17;;;;;;;9.98;2.88;;;;;;;;;;4993338;28;20019;-67
2022/01/01 07:28:42;;;;;;;11.48;2.63;;;;;;;;;;4992347;28;20018;-66
2022/01/01 07:31:08;;;;;;;19.20;3.35;;;;;;;;;;4993229;28;20069;-67
2022/01/01 07:33:33;;;;;;;15.73;3.85;;;;;;;;;;5006582;28;20022;-66
2022/01/01 07:35:58;;;;;;;11.60;2.60;;;;;;;;;;5001841;28;20511;-67
2022/01/01 07:38:23;;;;;;;5.13;1.57;;;;;;;;;;4992524;28;20277;-66
2022/01/01 07:40:49;;;;;;;11.32;2.15;;;;;;;;;;4992726;28;20289;-66
2022/01/01 07:43:15;;;;;;;9.18;3.38;;;;;;;;;;4992457;28;20676;-66
2022/01/01 07:45:41;;;;;;;10.15;2.42;;;;;;;;;;4992944;28;20084;-66
2022/01/01 07:48:07;;;;;;;11.05;3.10;;;;;;;;;;4991178;28;20125;-66
2022/01/01 07:50:32;;;;;;;8.93;3.20;;;;;;;;;;4992003;28;20026;-66
2022/01/01 07:52:57;;;;;;;13.55;2.63;;;;;;;;;;4992262;28;20030;-66
2022/01/01 07:55:23;;;;;;;18.10;2.45;;;;;;;;;;4992280;28;20053;-66
2022/01/01 07:57:48;;;;;;;4.28;1.73;;;;;;;;;;4992186;28;20667;-67
2022/01/01 08:00:13;;;;;;;8.33;2.10;;;;;;;;;;4992230;28;20026;-66
2022/01/01 08:02:42;;;;;;;5.93;1.58;;;;;;;;;;4991781;28;20408;-66
2022/01/01 08:05:08;;;;;;;18.17;2.90;;;;;;;;;;4989696;28;20018;-66
2022/01/01 08:07:33;;;;;;;10.57;2.35;;;;;;;;;;4991381;28;20037;-66
2022/01/01 08:09:58;;;;;;;12.97;2.60;;;;;;;;;;4992406;28;20032;-65
2022/01/01 08:12:23;;;;;;;13.93;2.90;;;;;;;;;;4991300;28;20773;-66
2022/01/01 08:14:48;;;;;;;17.50;3.27;;;;;;;;;;4993304;28;20269;-67
2022/01/01 08:17:14;;;;;;;7.73;1.93;;;;;;;;;;4988494;28;20269;-66
2022/01/01 08:19:39;;;;;;;4.63;1.63;;;;;;;;;;4991482;28;20277;-66
2022/01/01 08:22:04;;;;;;;11.27;2.70;;;;;;;;;;4990167;28;20133;-66
2022/01/01 08:24:29;;;;;;;10.93;3.15;;;;;;;;;;4991730;28;20022;-66
2022/01/01 08:26:55;;;;;;;13.20;3.88;;;;;;;;;;4990766;28;20089;-66
2022/01/01 08:29:20;;;;;;;11.68;2.13;;;;;;;;;;4991324;28;20022;-66
2022/01/01 08:31:46;;;;;;;12.88;2.20;;;;;;;;;;4991049;28;20033;-67
2022/01/01 08:34:11;;;;;;;10.48;2.63;;;;;;;;;;4990306;28;20030;-66
2022/01/01 08:36:36;;;;;;;17.20;2.50;;;;;;;;;;4990987;28;20041;-67
2022/01/01 08:39:05;;;;;;;10.15;1.67;;;;;;;;;;4990470;28;20325;-66
2022/01/01 08:41:31;;;;;;;10.00;2.28;;;;;;;;;;4990932;28;20494;-66
2022/01/01 08:43:56;;;;;;;3.45;0.98;;;;;;;;;;4991030;28;20033;-67
2022/01/01 08:46:21;;;;;;;15.63;3.10;;;;;;;;;;4990671;28;20019;-67
2022/01/01 08:48:46;;;;;;;13.23;2.77;;;;;;;;;;4990600;28;20287;-66
2022/01/01 08:51:19;;;;;;;8.90;1.77;;;;;;;;;;4990732;28;20277;-67
2022/01/01 08:53:45;;;;;;;7.47;1.55;;;;;;;;;;4990358;28;20261;-67
2022/01/01 08:56:10;;;;;;;7.40;1.98;;;;;;;;;;4988730;28;20026;-67
2022/01/01 08:58:36;;;;;;;10.18;3.70;;;;;;;;;;4990613;28;20022;-66
2022/01/01 09:03:29;;;;;;;6.03;1.85;;;;;;;;;;5027515;28;20037;-65
2022/01/01 09:05:54;;;;;;;12.07;2.83;;;;;;;;;;5022549;28;20553;-64
2022/01/01 09:08:20;;;;;;;4.82;2.00;;;;;;;;;;5011260;28;20026;-64
2022/01/01 09:10:45;;;;;;;14.07;2.25;;;;;;;;;;5022913;28;20017;-64
2022/01/01 09:13:10;;;;;;;11.52;3.10;;;;;;;;;;4995117;28;20057;-64
2022/01/01 09:15:35;;;;;;;6.93;2.05;;;;;;;;;;5005286;28;20447;-64
2022/01/01 09:18:00;;;;;;;10.70;3.00;;;;;;;;;;5006014;28;20508;-64
2022/01/01 09:20:26;;;;;;;5.07;1.87;;;;;;;;;;5007648;28;20320;-64
2022/01/01 09:22:51;;;;;;;7.57;2.33;;;;;;;;;;5016093;28;20271;-64
2022/01/01 09:25:16;;;;;;;11.43;2.97;;;;;;;;;;5010357;28;20344;-64
2022/01/01 09:27:41;;;;;;;7.47;1.98;;;;;;;;;;5009961;28;20276;-64
2022/01/01 09:30:07;;;;;;;13.77;2.40;;;;;;;;;;5001519;28;20084;-64
2022/01/01 09:32:33;;;;;;;4.07;1.98;;;;;;;;;;5007546;28;20279;-64
2022/01/01 09:34:58;;;;;;;8.90;2.05;;;;;;;;;;5004764;28;20101;-64
2022/01/01 09:37:23;;;;;;;10.68;2.05;;;;;;;;;;5010554;28;20160;-64
2022/01/01 09:39:49;;;;;;;7.38;2.60;;;;;;;;;;5004234;28;20075;-67
2022/01/01 09:42:15;;;;;;;8.30;1.97;;;;;;;;;;5005755;28;20061;-65
2022/01/01 09:44:40;;;;;;;3.60;1.70;;;;;;;;;;5003163;28;20295;-65
2022/01/01 09:47:06;;;;;;;6.97;2.75;;;;;;;;;;4997846;28;20034;-65
2022/01/01 09:49:31;;;;;;;7.20;2.50;;;;;;;;;;5009245;28;20021;-65
2022/01/01 09:51:56;;;;;;;3.90;0.93;;;;;;;;;;5008954;28;20038;-65
2022/01/01 09:54:21;;;;;;;6.35;2.58;;;;;;;;;;5005394;28;20037;-65
2022/01/01 09:56:46;;;;;;;5.35;1.88;;;;;;;;;;4994181;28;20045;-64
2022/01/01 09:59:12;;;;;;;2.37;1.10;;;;;;;;;;5008767;28;20117;-65
2022/01/01 10:01:38;;;;;;;14.82;2.10;;;;;;;;;;5006684;28;20261;-65
2022/01/01 10:04:10;;;;;;;7.50;2.63;;;;;;;;;;5002434;28;20025;-65
2022/01/01 10:06:36;;;;;;;13.07;2.35;;;;;;;;;;4999119;28;20418;-64
2022/01/01 10:09:03;;;;;;;8.77;1.93;;;;;;;;;;5008956;28;20026;-65
2022/01/01 10:11:30;;;;;;;5.18;1.83;;;;;;;;;;4991543;28;20712;-64
2022/01/01 10:13:55;;;;;;;8.85;3.58;;;;;;;;;;4994292;28;20026;-64
2022/01/01 10:16:21;;;;;;;5.40;2.17;;;;;;;;;;4994503;28;20525;-64
2022/01/01 10:18:51;;;;;;;4.78;1.38;;;;;;;;;;4994001;28;20080;-64
2022/01/01 10:21:20;;;;;;;13.23;2.25;;;;;;;;;;5017555;28;20014;-64
2022/01/01 10:23:46;;;;;;;6.05;2.13;;;;;;;;;;4998327;28;20097;-64
2022/01/01 10:29:23;;;;;;;6.70;2.85;;;;;;;;;;5000569;28;20033;-64
2022/01/01 10:31:59;;;;;;;4.50;1.85;;;;;;;;;;5003164;28;20034;-65
2022/01/01 10:34:25;;;;;;;5.22;2.00;;;;;;;;;;5006816;28;20045;-64
2022/01/01 10:36:52;;;;;;;6.78;1.85;;;;;;;;;;5004193;28;20391;-66
2022/01/01 10:39:18;;;;;;;7.93;1.83;;;;;;;;;;5012299;28;20535;-64
2022/01/01 10:41:51;;;;;;;5.57;1.30;;;;;;;;;;5011683;28;20032;-64
2022/01/01 10:44:20;;;;;;;7.35;2.38;;;;;;;;;;5010725;28;20029;-64
2022/01/01 10:46:45;;;;;;;3.47;1.13;;;;;;;;;;5001461;28;20022;-64
2022/01/01 10:49:37;;;;;;;6.53;2.20;;;;;;;;;;5006937;28;20267;-64
2022/01/01 10:52:35;;;;;;;6.28;1.55;;;;;;;;;;4994161;28;20105;-67
2022/01/01 10:55:02;;;;;;;4.60;1.50;;;;;;;;;;4950821;28;20034;-65
2022/01/01 10:57:33;;;;;;;17.20;2.97;;;;;;;;;;4999456;28;20036;-64
2022/01/01 10:59:58;;;;;;;;;;;;;;;;;;5012955;28;20026;-64
2022/01/01 11:02:24;;;;;;;9.23;2.00;;;;;;;;;;5013021;28;19935;-64
2022/01/01 11:04:49;;;;;;;6.85;2.15;;;;;;;;;;5013016;28;20101;-65
2022/01/01 11:07:24;;;;;;;11.57;2.17;;;;;;;;;;5007791;28;20098;-63
2022/01/01 11:09:49;;;;;;;3.25;1.30;;;;;;;;;;5002703;28;20040;-64
2022/01/01 11:12:17;;;;;;;4.65;1.63;;;;;;;;;;5011093;28;20390;-65
2022/01/01 11:14:43;;;;;;;3.28;1.88;;;;;;;;;;5006520;28;20122;-64
2022/01/01 11:17:08;;;;;;;10.45;3.15;;;;;;;;;;4993314;28;20108;-64
2022/01/01 11:19:33;;;;;;;6.67;1.83;;;;;;;;;;5005991;28;20025;-64
2022/01/01 11:21:59;;;;;;;2.73;1.10;;;;;;;;;;4999402;28;20745;-65
2022/01/01 11:24:25;;;;;;;7.43;1.92;;;;;;;;;;5002956;28;20278;-64
2022/01/01 11:26:50;;;;;;;3.00;1.35;;;;;;;;;;5001912;28;20030;-65
2022/01/01 11:29:16;;;;;;;7.40;2.10;;;;;;;;;;5010684;28;20493;-64
2022/01/01 11:31:42;;;;;;;6.05;1.60;;;;;;;;;;5005540;28;20022;-65
2022/01/01 11:34:07;;;;;;;6.20;1.92;;;;;;;;;;4998762;28;20029;-65
2022/01/01 11:36:34;;;;;;;6.50;1.67;;;;;;;;;;4997984;28;20037;-65
2022/01/01 11:39:03;;;;;;;5.32;2.10;;;;;;;;;;4997717;28;20026;-64
2022/01/01 11:41:37;;;;;;;6.72;1.77;;;;;;;;;;5007049;28;20230;-65
2022/01/01 11:44:02;;;;;;;5.43;2.00;;;;;;;;;;4993629;28;20018;-65
2022/01/01 11:46:29;;;;;;;4.10;1.90;;;;;;;;;;4996245;28;20394;-65
2022/01/01 11:48:56;;;;;;;8.95;2.13;;;;;;;;;;5000300;28;20164;-65
2022/01/01 11:51:32;;;;;;;1.13;0.73;;;;;;;;;;5006965;28;20038;-65
2022/01/01 11:54:30;;;;;;;5.97;1.67;;;;;;;;;;4996749;28;20030;-64
2022/01/01 11:56:56;;;;;;;3.67;1.52;;;;;;;;;;4961378;28;20042;-65
2022/01/01 11:59:31;;;;;;;9.65;2.30;;;;;;;;;;4994652;28;20030;-64
2022/01/01 12:01:58;;;;;;;3.72;1.50;;;;;;;;;;5005711;28;20478;-65
2022/01/01 12:04:24;;;;;;;6.30;1.77;;;;;;;;;;5002850;28;20088;-65
2022/01/01 12:06:53;;;;;;;4.00;1.58;;;;;;;;;;4993788;28;20065;-64
2022/01/01 12:09:18;;;;;;;6.03;1.60;;;;;;;;;;5003896;28;20022;-66
2022/01/01 12:11:49;;;;;;;4.67;1.50;;;;;;;;;;4993329;28;20100;-64
2022/01/01 12:14:24;;;;;;;7.78;1.80;;;;;;;;;;4995443;28;20278;-65
2022/01/01 12:16:50;;;;;;;3.88;1.42;;;;;;;;;;5012129;28;20030;-64
2022/01/01 12:19:19;;;;;;;4.57;1.33;;;;;;;;;;5001133;28;20081;-64
2022/01/01 12:21:44;;;;;;;8.50;2.58;;;;;;;;;;4992400;28;20030;-64
2022/01/01 12:24:16;;;;;;;6.03;1.80;;;;;;;;;;4996134;28;20014;-65
2022/01/01 12:26:48;;;;;;;1.67;0.75;;;;;;;;;;5012069;28;20253;-65
2022/01/01 12:29:14;;;;;;;2.40;1.13;;;;;;;;;;4999890;28;20046;-65
2022/01/01 12:31:54;;;;;;;4.72;1.50;;;;;;;;;;4992165;28;20022;-64
2022/01/01 12:34:19;;;;;;;3.63;1.63;;;;;;;;;;4996914;28;20141;-64
2022/01/01 12:36:49;;;;;;;2.90;0.95;;;;;;;;;;4991814;28;20058;-65
2022/01/01 12:39:14;;;;;;;;;;;;;;;;;;5008485;28;20030;-64
2022/01/01 12:41:40;;;;;;;4.72;1.75;;;;;;;;;;5009931;28;19964;-64
2022/01/01 12:44:07;;;;;;;5.47;1.77;;;;;;;;;;5000690;28;20026;-64
2022/01/01 12:46:34;;;;;;;6.75;1.60;;;;;;;;;;4992057;28;20018;-65
2022/01/01 12:49:00;;;;;;;7.38;1.92;;;;;;;;;;4998320;28;20106;-65
2022/01/01 12:51:27;;;;;;;5.00;2.13;;;;;;;;;;4998788;28;20481;-65
2022/01/01 12:53:56;;;;;;;8.07;2.25;;;;;;;;;;4992030;28;20076;-65
2022/01/01 12:56:22;;;;;;;3.25;1.92;;;;;;;;;;4999313;28;20092;-64
2022/01/01 12:58:51;;;;;;;7.28;2.90;;;;;;;;;;5005514;28;20108;-65
2022/01/01 13:01:18;;;;;;;5.30;1.75;;;;;;;;;;5015358;28;20022;-65
2022/01/01 13:03:47;;;;;;;7.80;1.50;;;;;;;;;;5007337;28;20490;-65
2022/01/01 13:06:22;;;;;;;3.92;1.88;;;;;;;;;;5002317;28;20034;-64
2022/01/01 13:08:48;;;;;;;3.25;1.05;;;;;;;;;;5006588;28;20026;-65
2022/01/01 13:11:13;;;;;;;1.33;0.93;;;;;;;;;;5001500;28;20077;-65
2022/01/01 13:13:39;;;;;;;3.53;1.25;;;;;;;;;;4991233;28;20270;-65
2022/01/01 13:16:04;;;;;;;5.45;1.70;;;;;;;;;;4993394;28;20093;-65
2022/01/01 13:18:29;;;;;;;3.15;1.55;;;;;;;;;;4997016;28;20153;-64
2022/01/01 13:20:55;;;;;;;3.27;1.60;;;;;;;;;;4986147;28;20096;-65
2022/01/01 13:23:23;;;;;;;2.50;1.60;;;;;;;;;;5030659;28;20021;-64
2022/01/01 13:25:52;;;;;;;3.22;1.50;;;;;;;;;;5008198;28;20018;-64
2022/01/01 13:28:17;;;;;;;3.75;1.88;;;;;;;;;;4995773;28;20031;-64
2022/01/01 13:30:43;;;;;;;5.97;2.00;;;;;;;;;;5010189;28;20021;-65
2022/01/01 13:33:09;;;;;;;4.15;1.75;;;;;;;;;;5010531;28;20040;-65
2022/01/01 13:35:34;;;;;;;4.45;2.08;;;;;;;;;;5003447;28;20018;-65
2022/01/01 13:37:59;;;;;;;5.22;1.92;;;;;;;;;;4996937;28;20037;-65
2022/01/01 13:40:24;;;;;;;5.13;1.40;;;;;;;;;;4990649;28;20025;-65
2022/01/01 13:42:49;;;;;;;11.23;2.47;;;;;;;;;;4991339;28;20266;-65
2022/01/01 13:45:15;;;;;;;4.65;2.42;;;;;;;;;;4998351;28;20100;-65
2022/01/01 13:47:40;;;;;;;2.50;1.02;;;;;;;;;;5006820;28;20022;-65
2022/01/01 13:50:13;;;;;;;4.90;1.50;;;;;;;;;;5008902;28;20050;-65
2022/01/01 13:52:39;;;;;;;3.10;1.92;;;;;;;;;;4994998;28;20026;-64
2022/01/01 13:55:07;;;;;;;3.80;1.70;;;;;;;;;;5011680;28;20037;-65
2022/01/01 13:57:34;;;;;;;5.93;0.82;;;;;;;;;;5002285;28;20459;-65
2022/01/01 13:59:59;;;;;;;10.27;1.83;;;;;;;;;;4998678;28;20026;-65
2022/01/01 14:02:28;;;;;;;6.78;1.27;;;;;;;;;;5007924;28;20979;-65
2022/01/01 14:04:58;;;;;;;6.72;1.85;;;;;;;;;;5008324;28;20387;-65
2022/01/01 14:07:23;;;;;;;3.90;2.17;;;;;;;;;;5007203;28;20050;-65
2022/01/01 14:10:05;;;;;;;6.68;2.00;;;;;;;;;;5010641;28;20056;-65
2022/01/01 14:12:33;;;;;;;3.00;1.45;;;;;;;;;;5006265;28;20026;-65
2022/01/01 14:15:06;;;;;;;4.63;1.98;;;;;;;;;;4994197;28;20014;-65
2022/01/01 14:17:54;;;;;;;5.50;1.73;;;;;;;;;;5004895;28;20029;-65
2022/01/01 14:20:21;;;;;;;6.97;1.95;;;;;;;;;;5001206;28;20371;-65
2022/01/01 14:22:46;;;;;;;5.47;1.40;;;;;;;;;;4995179;28;20626;-65
2022/01/01 14:25:12;;;;;;;6.70;2.25;;;;;;;;;;5005098;28;20036;-66
2022/01/01 14:27:38;;;;;;;7.75;1.92;;;;;;;;;;5001445;28;20562;-64
2022/01/01 14:30:03;;;;;;;4.70;1.77;;;;;;;;;;5006852;28;20108;-66
2022/01/01 14:32:29;;;;;;;5.63;1.50;;;;;;;;;;5002132;28;20375;-65
2022/01/01 14:34:55;;;;;;;4.40;1.13;;;;;;;;;;4997718;28;20360;-66
2022/01/01 14:37:21;;;;;;;3.85;1.73;;;;;;;;;;4998928;28;20029;-65